sensor_id;sensor_type;location;lat;lon;timestamp;pressure;altitude;pressure_sealevel;temperature;humidity
71126;BME280;58785;55.566;38.058;2023-12-07T00:01:37;102262.97;;;-6.54;69.96
71126;BME280;58785;55.566;38.058;2023-12-07T00:04:03;102262.16;;;-6.51;69.43
71126;BME280;58785;55.566;38.058;2023-12-07T00:06:29;102259.56;;;-6.50;69.00
71126;BME280;58785;55.566;38.058;2023-12-07T00:08:55;102267.34;;;-6.48;69.17
71126;BME280;58785;55.566;38.058;2023-12-07T00:11:24;102268.16;;;-6.52;69.66
71126;BME280;58785;55.566;38.058;2023-12-07T00:13:49;102264.72;;;-6.53;69.82
71126;BME280;58785;55.566;38.058;2023-12-07T00:16:15;102265.63;;;-6.51;69.76
71126;BME280;58785;55.566;38.058;2023-12-07T00:18:41;102266.44;;;-6.53;69.81
71126;BME280;58785;55.566;38.058;2023-12-07T00:21:11;102269.03;;;-6.53;69.77
71126;BME280;58785;55.566;38.058;2023-12-07T00:23:36;102265.56;;;-6.55;69.96
71126;BME280;58785;55.566;38.058;2023-12-07T00:26:05;102269.00;;;-6.58;69.31
71126;BME280;58785;55.566;38.058;2023-12-07T00:28:30;102267.28;;;-6.59;69.52
71126;BME280;58785;55.566;38.058;2023-12-07T00:30:56;102267.28;;;-6.59;69.74
71126;BME280;58785;55.566;38.058;2023-12-07T00:33:22;102266.41;;;-6.58;69.26
71126;BME280;58785;55.566;38.058;2023-12-07T00:35:48;102267.22;;;-6.63;69.60
71126;BME280;58785;55.566;38.058;2023-12-07T00:38:14;102265.47;;;-6.66;69.50
71126;BME280;58785;55.566;38.058;2023-12-07T00:40:39;102268.91;;;-6.67;69.59
71126;BME280;58785;55.566;38.058;2023-12-07T00:43:08;102275.81;;;-6.69;69.58
71126;BME280;58785;55.566;38.058;2023-12-07T00:45:33;102266.22;;;-6.79;69.84
71126;BME280;58785;55.566;38.058;2023-12-07T00:47:59;102269.66;;;-6.80;69.59
71126;BME280;58785;55.566;38.058;2023-12-07T00:50:25;102272.25;;;-6.79;70.08
71126;BME280;58785;55.566;38.058;2023-12-07T00:52:50;102273.13;;;-6.81;70.08
71126;BME280;58785;55.566;38.058;2023-12-07T00:55:16;102270.47;;;-6.84;70.18
71126;BME280;58785;55.566;38.058;2023-12-07T00:57:42;102273.06;;;-6.86;70.09
71126;BME280;58785;55.566;38.058;2023-12-07T01:00:08;102278.16;;;-6.92;69.63
71126;BME280;58785;55.566;38.058;2023-12-07T01:02:36;102291.13;;;-6.93;69.75
71126;BME280;58785;55.566;38.058;2023-12-07T01:05:02;102281.56;;;-6.99;70.12
71126;BME280;58785;55.566;38.058;2023-12-07T01:07:30;102285.91;;;-6.98;70.28
71126;BME280;58785;55.566;38.058;2023-12-07T01:09:56;102278.13;;;-6.98;69.49
71126;BME280;58785;55.566;38.058;2023-12-07T01:12:22;102281.47;;;-7.07;70.00
71126;BME280;58785;55.566;38.058;2023-12-07T01:14:47;102280.50;;;-7.16;69.40
71126;BME280;58785;55.566;38.058;2023-12-07T01:17:13;102296.94;;;-7.14;69.47
71126;BME280;58785;55.566;38.058;2023-12-07T01:19:39;102292.56;;;-7.20;70.07
71126;BME280;58785;55.566;38.058;2023-12-07T01:22:05;102295.09;;;-7.23;70.18
71126;BME280;58785;55.566;38.058;2023-12-07T01:24:30;102297.69;;;-7.23;70.17
71126;BME280;58785;55.566;38.058;2023-12-07T01:26:56;102301.97;;;-7.28;70.11
71126;BME280;58785;55.566;38.058;2023-12-07T01:29:22;102301.03;;;-7.32;69.37
71126;BME280;58785;55.566;38.058;2023-12-07T01:31:47;102303.47;;;-7.45;69.98
71126;BME280;58785;55.566;38.058;2023-12-07T01:34:13;102311.19;;;-7.48;69.65
71126;BME280;58785;55.566;38.058;2023-12-07T01:36:39;102309.47;;;-7.49;69.84
71126;BME280;58785;55.566;38.058;2023-12-07T01:39:05;102310.25;;;-7.54;70.28
71126;BME280;58785;55.566;38.058;2023-12-07T01:41:31;102298.13;;;-7.58;69.73
71126;BME280;58785;55.566;38.058;2023-12-07T01:43:57;102307.63;;;-7.57;69.62
71126;BME280;58785;55.566;38.058;2023-12-07T01:46:23;102307.63;;;-7.58;69.92
71126;BME280;58785;55.566;38.058;2023-12-07T01:48:49;102313.56;;;-7.64;70.00
71126;BME280;58785;55.566;38.058;2023-12-07T01:51:15;102319.56;;;-7.68;70.47
71126;BME280;58785;55.566;38.058;2023-12-07T01:53:41;102322.91;;;-7.75;69.67
71126;BME280;58785;55.566;38.058;2023-12-07T01:56:08;102335.72;;;-7.84;69.68
71126;BME280;58785;55.566;38.058;2023-12-07T01:58:34;102333.16;;;-7.83;69.46
71126;BME280;58785;55.566;38.058;2023-12-07T02:01:01;102329.63;;;-7.88;70.15
71126;BME280;58785;55.566;38.058;2023-12-07T02:03:30;102335.66;;;-7.89;69.69
71126;BME280;58785;55.566;38.058;2023-12-07T02:05:57;102338.22;;;-7.90;70.14
71126;BME280;58785;55.566;38.058;2023-12-07T02:08:24;102334.69;;;-7.95;69.92
71126;BME280;58785;55.566;38.058;2023-12-07T02:10:50;102337.22;;;-8.00;69.58
71126;BME280;58785;55.566;38.058;2023-12-07T02:13:20;102339.78;;;-8.01;69.83
71126;BME280;58785;55.566;38.058;2023-12-07T02:15:46;102337.94;;;-8.08;70.16
71126;BME280;58785;55.566;38.058;2023-12-07T02:18:26;102334.38;;;-8.15;70.52
71126;BME280;58785;55.566;38.058;2023-12-07T02:21:30;102337.75;;;-8.19;70.18
71126;BME280;58785;55.566;38.058;2023-12-07T02:23:46;102342.09;;;-8.18;70.33
71126;BME280;58785;55.566;38.058;2023-12-07T02:26:13;102341.16;;;-8.22;69.40
71126;BME280;58785;55.566;38.058;2023-12-07T02:28:42;102343.66;;;-8.26;69.57
71126;BME280;58785;55.566;38.058;2023-12-07T02:31:07;102347.91;;;-8.31;70.16
71126;BME280;58785;55.566;38.058;2023-12-07T02:33:33;102331.28;;;-8.47;69.81
71126;BME280;58785;55.566;38.058;2023-12-07T02:35:59;102351.06;;;-8.49;70.60
71126;BME280;58785;55.566;38.058;2023-12-07T02:38:26;102345.59;;;-8.66;69.78
71126;BME280;58785;55.566;38.058;2023-12-07T02:40:54;102348.19;;;-8.64;70.71
71126;BME280;58785;55.566;38.058;2023-12-07T02:43:22;102356.94;;;-8.58;70.15
71126;BME280;58785;55.566;38.058;2023-12-07T02:45:49;102367.38;;;-8.52;70.52
71126;BME280;58785;55.566;38.058;2023-12-07T02:48:15;102366.59;;;-8.49;70.03
71126;BME280;58785;55.566;38.058;2023-12-07T02:50:42;102359.63;;;-8.52;69.27
71126;BME280;58785;55.566;38.058;2023-12-07T02:53:08;102360.44;;;-8.54;69.94
71126;BME280;58785;55.566;38.058;2023-12-07T02:55:34;102360.44;;;-8.54;70.54
71126;BME280;58785;55.566;38.058;2023-12-07T02:58:00;102360.44;;;-8.54;69.78
71126;BME280;58785;55.566;38.058;2023-12-07T03:00:25;102370.78;;;-8.56;70.14
71126;BME280;58785;55.566;38.058;2023-12-07T03:02:51;102359.41;;;-8.64;70.04
71126;BME280;58785;55.566;38.058;2023-12-07T03:05:17;102361.78;;;-8.75;69.94
71126;BME280;58785;55.566;38.058;2023-12-07T03:07:45;102377.22;;;-8.81;69.79
71126;BME280;58785;55.566;38.058;2023-12-07T03:10:10;102374.53;;;-8.84;69.60
71126;BME280;58785;55.566;38.058;2023-12-07T03:12:36;102381.31;;;-8.90;70.16
71126;BME280;58785;55.566;38.058;2023-12-07T03:15:01;102370.91;;;-8.92;70.46
71126;BME280;58785;55.566;38.058;2023-12-07T03:17:29;102368.34;;;-8.92;70.35
71126;BME280;58785;55.566;38.058;2023-12-07T03:19:56;102383.91;;;-8.90;70.51
71126;BME280;58785;55.566;38.058;2023-12-07T03:22:23;102385.63;;;-8.91;70.70
71126;BME280;58785;55.566;38.058;2023-12-07T03:24:51;102386.53;;;-8.87;69.48
71126;BME280;58785;55.566;38.058;2023-12-07T03:27:18;102382.25;;;-8.85;69.54
71126;BME280;58785;55.566;38.058;2023-12-07T03:29:43;102382.28;;;-8.84;70.32
71126;BME280;58785;55.566;38.058;2023-12-07T03:32:10;102385.00;;;-8.78;70.03
71126;BME280;58785;55.566;38.058;2023-12-07T03:34:36;102387.63;;;-8.76;69.85
71126;BME280;58785;55.566;38.058;2023-12-07T03:37:02;102380.00;;;-8.70;69.73
71126;BME280;58785;55.566;38.058;2023-12-07T03:39:32;102392.97;;;-8.67;70.01
71126;BME280;58785;55.566;38.058;2023-12-07T03:41:57;102401.63;;;-8.65;69.54
71126;BME280;58785;55.566;38.058;2023-12-07T03:44:24;102406.78;;;-8.65;70.21
71126;BME280;58785;55.566;38.058;2023-12-07T03:46:52;102405.81;;;-8.72;70.13
71126;BME280;58785;55.566;38.058;2023-12-07T03:49:19;102410.94;;;-8.73;70.27
71126;BME280;58785;55.566;38.058;2023-12-07T03:51:45;102402.31;;;-8.74;69.43
71126;BME280;58785;55.566;38.058;2023-12-07T03:54:12;102413.59;;;-8.70;70.00
71126;BME280;58785;55.566;38.058;2023-12-07T03:56:38;102409.16;;;-8.77;70.34
71126;BME280;58785;55.566;38.058;2023-12-07T03:59:03;102404.69;;;-8.84;69.59
71126;BME280;58785;55.566;38.058;2023-12-07T04:01:29;102412.28;;;-8.92;70.16
71126;BME280;58785;55.566;38.058;2023-12-07T04:03:56;102414.69;;;-9.01;69.75
71126;BME280;58785;55.566;38.058;2023-12-07T04:06:22;102416.28;;;-9.06;69.65
71126;BME280;58785;55.566;38.058;2023-12-07T04:08:49;102417.06;;;-9.12;70.67
71126;BME280;58785;55.566;38.058;2023-12-07T04:11:15;102418.66;;;-9.17;70.44
71126;BME280;58785;55.566;38.058;2023-12-07T04:13:41;102424.53;;;-9.22;70.10
71126;BME280;58785;55.566;38.058;2023-12-07T04:16:10;102429.47;;;-9.33;70.39
71126;BME280;58785;55.566;38.058;2023-12-07T04:18:37;102429.31;;;-9.41;70.87
71126;BME280;58785;55.566;38.058;2023-12-07T04:21:03;102435.25;;;-9.43;69.82
71126;BME280;58785;55.566;38.058;2023-12-07T04:23:30;102429.13;;;-9.48;69.96
71126;BME280;58785;55.566;38.058;2023-12-07T04:25:56;102437.75;;;-9.48;70.06
71126;BME280;58785;55.566;38.058;2023-12-07T04:28:22;102440.28;;;-9.51;70.04
71126;BME280;58785;55.566;38.058;2023-12-07T04:30:48;102441.03;;;-9.55;70.58
71126;BME280;58785;55.566;38.058;2023-12-07T04:33:13;102435.75;;;-9.60;70.46
71126;BME280;58785;55.566;38.058;2023-12-07T04:35:40;102438.19;;;-9.66;70.88
71126;BME280;58785;55.566;38.058;2023-12-07T04:38:06;102434.50;;;-9.75;70.07
71126;BME280;58785;55.566;38.058;2023-12-07T04:40:32;102443.16;;;-9.73;70.30
71126;BME280;58785;55.566;38.058;2023-12-07T04:42:58;102441.38;;;-9.76;71.32
71126;BME280;58785;55.566;38.058;2023-12-07T04:45:24;102435.28;;;-9.79;69.94
71126;BME280;58785;55.566;38.058;2023-12-07T04:47:49;102446.38;;;-9.82;70.68
71126;BME280;58785;55.566;38.058;2023-12-07T04:50:15;102448.06;;;-9.84;70.80
71126;BME280;58785;55.566;38.058;2023-12-07T04:52:41;102436.88;;;-9.85;71.18
71126;BME280;58785;55.566;38.058;2023-12-07T04:55:07;102445.41;;;-9.87;70.74
71126;BME280;58785;55.566;38.058;2023-12-07T04:57:35;102449.66;;;-9.89;70.18
71126;BME280;58785;55.566;38.058;2023-12-07T05:00:02;102448.00;;;-9.87;70.68
71126;BME280;58785;55.566;38.058;2023-12-07T05:02:32;102454.03;;;-9.87;70.32
71126;BME280;58785;55.566;38.058;2023-12-07T05:04:59;102450.59;;;-9.86;70.09
71126;BME280;58785;55.566;38.058;2023-12-07T05:07:25;102454.97;;;-9.83;69.77
71126;BME280;58785;55.566;38.058;2023-12-07T05:09:51;102463.75;;;-9.76;70.46
71126;BME280;58785;55.566;38.058;2023-12-07T05:12:17;102462.94;;;-9.74;70.05
71126;BME280;58785;55.566;38.058;2023-12-07T05:14:43;102468.19;;;-9.71;69.48
71126;BME280;58785;55.566;38.058;2023-12-07T05:17:09;102461.56;;;-9.61;69.64
71126;BME280;58785;55.566;38.058;2023-12-07T05:19:35;102467.88;;;-9.48;69.67
71126;BME280;58785;55.566;38.058;2023-12-07T05:22:01;102471.50;;;-9.40;69.32
71126;BME280;58785;55.566;38.058;2023-12-07T05:24:28;102471.63;;;-9.34;69.54
71126;BME280;58785;55.566;38.058;2023-12-07T05:26:55;102473.56;;;-9.25;68.84
71126;BME280;58785;55.566;38.058;2023-12-07T05:29:21;102479.78;;;-9.17;69.82
71126;BME280;58785;55.566;38.058;2023-12-07T05:31:50;102478.25;;;-9.09;69.07
71126;BME280;58785;55.566;38.058;2023-12-07T05:34:17;102482.75;;;-9.01;69.27
71126;BME280;58785;55.566;38.058;2023-12-07T05:36:43;102495.78;;;-8.96;68.96
71126;BME280;58785;55.566;38.058;2023-12-07T05:39:09;102498.34;;;-8.96;69.58
71126;BME280;58785;55.566;38.058;2023-12-07T05:41:36;102496.75;;;-8.91;69.30
71126;BME280;58785;55.566;38.058;2023-12-07T05:44:02;102505.44;;;-8.87;69.34
71126;BME280;58785;55.566;38.058;2023-12-07T05:46:29;102499.47;;;-8.85;69.30
71126;BME280;58785;55.566;38.058;2023-12-07T05:48:55;102497.75;;;-8.84;69.40
71126;BME280;58785;55.566;38.058;2023-12-07T05:51:20;102502.16;;;-8.80;69.08
71126;BME280;58785;55.566;38.058;2023-12-07T05:53:46;102505.72;;;-8.74;69.75
71126;BME280;58785;55.566;38.058;2023-12-07T05:56:12;102506.66;;;-8.72;69.63
71126;BME280;58785;55.566;38.058;2023-12-07T05:58:43;102503.25;;;-8.69;69.17
71126;BME280;58785;55.566;38.058;2023-12-07T06:01:08;102501.56;;;-8.67;69.05
71126;BME280;58785;55.566;38.058;2023-12-07T06:03:34;102506.06;;;-8.58;69.38
71126;BME280;58785;55.566;38.058;2023-12-07T06:06:00;102510.53;;;-8.51;69.35
71126;BME280;58785;55.566;38.058;2023-12-07T06:08:26;102507.22;;;-8.44;68.95
71126;BME280;58785;55.566;38.058;2023-12-07T06:10:52;102510.81;;;-8.36;69.43
71126;BME280;58785;55.566;38.058;2023-12-07T06:13:18;102513.53;;;-8.28;68.94
71126;BME280;58785;55.566;38.058;2023-12-07T06:15:44;102513.72;;;-8.19;68.39
71126;BME280;58785;55.566;38.058;2023-12-07T06:18:10;102518.22;;;-8.11;68.22
71126;BME280;58785;55.566;38.058;2023-12-07T06:20:37;102509.66;;;-8.05;68.00
71126;BME280;58785;55.566;38.058;2023-12-07T06:23:02;102527.13;;;-7.95;68.12
71126;BME280;58785;55.566;38.058;2023-12-07T06:25:29;102513.47;;;-7.86;68.25
71126;BME280;58785;55.566;38.058;2023-12-07T06:27:54;102525.63;;;-7.82;68.65
71126;BME280;58785;55.566;38.058;2023-12-07T06:30:21;102519.66;;;-7.79;68.41
71126;BME280;58785;55.566;38.058;2023-12-07T06:32:47;102517.91;;;-7.80;68.50
71126;BME280;58785;55.566;38.058;2023-12-07T06:35:13;102523.13;;;-7.77;68.84
71126;BME280;58785;55.566;38.058;2023-12-07T06:37:39;102528.44;;;-7.70;68.13
71126;BME280;58785;55.566;38.058;2023-12-07T06:40:11;102527.53;;;-7.72;68.74
71126;BME280;58785;55.566;38.058;2023-12-07T06:42:38;102527.63;;;-7.67;68.50
71126;BME280;58785;55.566;38.058;2023-12-07T06:45:05;102532.81;;;-7.67;68.46
71126;BME280;58785;55.566;38.058;2023-12-07T06:47:35;102531.22;;;-7.59;68.53
71126;BME280;58785;55.566;38.058;2023-12-07T06:50:01;102529.66;;;-7.49;68.42
71126;BME280;58785;55.566;38.058;2023-12-07T06:52:29;102524.47;;;-7.51;68.39
71126;BME280;58785;55.566;38.058;2023-12-07T06:54:54;102521.19;;;-7.41;67.89
71126;BME280;58785;55.566;38.058;2023-12-07T06:57:21;102522.09;;;-7.36;68.00
71126;BME280;58785;55.566;38.058;2023-12-07T06:59:46;102511.69;;;-7.40;67.73
71126;BME280;58785;55.566;38.058;2023-12-07T07:02:13;102515.28;;;-7.31;68.46
71126;BME280;58785;55.566;38.058;2023-12-07T07:04:38;102524.03;;;-7.22;68.10
71126;BME280;58785;55.566;38.058;2023-12-07T07:07:04;102518.06;;;-7.20;67.92
71126;BME280;58785;55.566;38.058;2023-12-07T07:09:30;102518.13;;;-7.14;68.00
71126;BME280;58785;55.566;38.058;2023-12-07T07:11:55;102525.06;;;-7.13;67.84
71126;BME280;58785;55.566;38.058;2023-12-07T07:14:21;102520.75;;;-7.12;67.49
71126;BME280;58785;55.566;38.058;2023-12-07T07:16:47;102517.31;;;-7.11;67.72
71126;BME280;58785;55.566;38.058;2023-12-07T07:19:13;102522.72;;;-6.96;67.63
71126;BME280;58785;55.566;38.058;2023-12-07T07:21:39;102523.72;;;-6.86;67.10
71126;BME280;58785;55.566;38.058;2023-12-07T07:24:11;102521.25;;;-6.79;67.43
71126;BME280;58785;55.566;38.058;2023-12-07T07:26:36;102521.28;;;-6.77;67.03
71126;BME280;58785;55.566;38.058;2023-12-07T07:29:02;102526.50;;;-6.74;67.59
71126;BME280;58785;55.566;38.058;2023-12-07T07:31:29;102522.25;;;-6.69;67.37
71126;BME280;58785;55.566;38.058;2023-12-07T07:33:55;102525.78;;;-6.62;67.05
71126;BME280;58785;55.566;38.058;2023-12-07T07:36:21;102530.19;;;-6.58;67.24
71126;BME280;58785;55.566;38.058;2023-12-07T07:38:46;102525.84;;;-6.59;67.43
71126;BME280;58785;55.566;38.058;2023-12-07T07:41:13;102523.28;;;-6.55;67.22
71126;BME280;58785;55.566;38.058;2023-12-07T07:43:39;102531.94;;;-6.54;67.08
71126;BME280;58785;55.566;38.058;2023-12-07T07:46:06;102530.28;;;-6.51;67.00
71126;BME280;58785;55.566;38.058;2023-12-07T07:48:32;102530.34;;;-6.45;66.87
71126;BME280;58785;55.566;38.058;2023-12-07T07:50:57;102527.75;;;-6.45;66.60
71126;BME280;58785;55.566;38.058;2023-12-07T07:53:24;102533.75;;;-6.50;67.18
71126;BME280;58785;55.566;38.058;2023-12-07T07:55:49;102538.00;;;-6.55;66.98
71126;BME280;58785;55.566;38.058;2023-12-07T07:58:15;102540.53;;;-6.60;66.89
71126;BME280;58785;55.566;38.058;2023-12-07T08:00:40;102545.75;;;-6.57;67.07
71126;BME280;58785;55.566;38.058;2023-12-07T08:03:06;102539.84;;;-6.47;66.79
71126;BME280;58785;55.566;38.058;2023-12-07T08:05:32;102539.09;;;-6.38;66.84
71126;BME280;58785;55.566;38.058;2023-12-07T08:07:58;102544.41;;;-6.27;66.44
71126;BME280;58785;55.566;38.058;2023-12-07T08:10:24;102541.94;;;-6.18;66.55
71126;BME280;58785;55.566;38.058;2023-12-07T08:12:50;102542.06;;;-6.07;65.74
71126;BME280;58785;55.566;38.058;2023-12-07T08:15:15;102547.25;;;-6.07;66.28
71126;BME280;58785;55.566;38.058;2023-12-07T08:17:41;102549.84;;;-6.09;66.23
71126;BME280;58785;55.566;38.058;2023-12-07T08:20:08;102547.28;;;-6.04;66.24
71126;BME280;58785;55.566;38.058;2023-12-07T08:22:38;102549.97;;;-5.97;65.81
71126;BME280;58785;55.566;38.058;2023-12-07T08:25:04;102544.94;;;-5.77;65.61
71126;BME280;58785;55.566;38.058;2023-12-07T08:27:34;102542.34;;;-5.75;65.30
71126;BME280;58785;55.566;38.058;2023-12-07T08:30:00;102537.19;;;-5.72;65.46
71126;BME280;58785;55.566;38.058;2023-12-07T08:32:26;102545.91;;;-5.67;65.50
71126;BME280;58785;55.566;38.058;2023-12-07T08:34:53;102543.34;;;-5.63;65.39
71126;BME280;58785;55.566;38.058;2023-12-07T08:37:18;102547.84;;;-5.48;64.59
71126;BME280;58785;55.566;38.058;2023-12-07T08:39:45;102548.81;;;-5.34;64.58
71126;BME280;58785;55.566;38.058;2023-12-07T08:42:11;102553.16;;;-5.31;64.21
71126;BME280;58785;55.566;38.058;2023-12-07T08:44:36;102536.72;;;-5.30;64.29
71126;BME280;58785;55.566;38.058;2023-12-07T08:47:02;102533.22;;;-5.32;63.83
71126;BME280;58785;55.566;38.058;2023-12-07T08:49:28;102533.09;;;-5.49;63.97
71126;BME280;58785;55.566;38.058;2023-12-07T08:51:54;102533.88;;;-5.56;64.54
71126;BME280;58785;55.566;38.058;2023-12-07T08:54:19;102533.72;;;-5.71;64.32
71126;BME280;58785;55.566;38.058;2023-12-07T08:56:45;102528.50;;;-5.76;64.43
71126;BME280;58785;55.566;38.058;2023-12-07T08:59:11;102530.25;;;-5.75;64.71
71126;BME280;58785;55.566;38.058;2023-12-07T09:01:36;102531.06;;;-5.79;64.73
71126;BME280;58785;55.566;38.058;2023-12-07T09:04:02;102540.50;;;-5.87;65.00
71126;BME280;58785;55.566;38.058;2023-12-07T09:06:29;102540.50;;;-5.89;64.84
71126;BME280;58785;55.566;38.058;2023-12-07T09:08:55;102529.25;;;-5.91;64.90
71126;BME280;58785;55.566;38.058;2023-12-07T09:11:20;102523.91;;;-6.01;64.85
71126;BME280;58785;55.566;38.058;2023-12-07T09:13:46;102536.03;;;-6.03;65.03
71126;BME280;58785;55.566;38.058;2023-12-07T09:16:12;102524.69;;;-6.12;65.56
71126;BME280;58785;55.566;38.058;2023-12-07T09:18:38;102529.94;;;-6.09;65.19
71126;BME280;58785;55.566;38.058;2023-12-07T09:21:04;102535.16;;;-6.02;65.07
71126;BME280;58785;55.566;38.058;2023-12-07T09:23:30;102540.41;;;-5.99;64.89
71126;BME280;58785;55.566;38.058;2023-12-07T09:25:56;102528.25;;;-6.02;64.52
71126;BME280;58785;55.566;38.058;2023-12-07T09:28:21;102536.00;;;-6.05;64.64
71126;BME280;58785;55.566;38.058;2023-12-07T09:30:47;102520.41;;;-6.10;64.38
71126;BME280;58785;55.566;38.058;2023-12-07T09:33:13;102529.91;;;-6.10;64.81
71126;BME280;58785;55.566;38.058;2023-12-07T09:35:39;102522.94;;;-6.14;64.57
71126;BME280;58785;55.566;38.058;2023-12-07T09:38:04;102529.94;;;-6.09;64.83
71126;BME280;58785;55.566;38.058;2023-12-07T09:40:30;102525.66;;;-6.02;64.75
71126;BME280;58785;55.566;38.058;2023-12-07T09:42:56;102514.47;;;-5.96;64.48
71126;BME280;58785;55.566;38.058;2023-12-07T09:45:22;102515.31;;;-5.97;64.44
71126;BME280;58785;55.566;38.058;2023-12-07T09:47:49;102524.88;;;-5.95;64.07
71126;BME280;58785;55.566;38.058;2023-12-07T09:50:17;102528.31;;;-5.99;64.50
71126;BME280;58785;55.566;38.058;2023-12-07T09:52:43;102522.22;;;-6.01;64.23
71126;BME280;58785;55.566;38.058;2023-12-07T09:55:09;102518.72;;;-6.01;64.49
71126;BME280;58785;55.566;38.058;2023-12-07T09:57:38;102507.44;;;-6.05;64.73
71126;BME280;58785;55.566;38.058;2023-12-07T10:00:04;102521.38;;;-5.97;64.20
71126;BME280;58785;55.566;38.058;2023-12-07T10:02:31;102520.56;;;-5.93;64.17
71126;BME280;58785;55.566;38.058;2023-12-07T10:05:03;102521.47;;;-5.86;63.92
71126;BME280;58785;55.566;38.058;2023-12-07T10:07:40;102522.41;;;-5.80;64.01
71126;BME280;58785;55.566;38.058;2023-12-07T10:10:07;102522.44;;;-5.75;63.75
71126;BME280;58785;55.566;38.058;2023-12-07T10:12:34;102523.38;;;-5.70;63.92
71126;BME280;58785;55.566;38.058;2023-12-07T10:15:04;102530.31;;;-5.70;63.73
71126;BME280;58785;55.566;38.058;2023-12-07T10:20:16;102517.25;;;-5.72;63.65
71126;BME280;58785;55.566;38.058;2023-12-07T10:22:42;102513.78;;;-5.72;63.56
71126;BME280;58785;55.566;38.058;2023-12-07T10:25:07;102524.25;;;-5.66;63.32
71126;BME280;58785;55.566;38.058;2023-12-07T10:27:34;102521.59;;;-5.72;63.86
71126;BME280;58785;55.566;38.058;2023-12-07T10:30:00;102516.38;;;-5.75;64.10
71126;BME280;58785;55.566;38.058;2023-12-07T10:32:26;102518.97;;;-5.77;63.48
71126;BME280;58785;55.566;38.058;2023-12-07T10:34:52;102519.75;;;-5.86;64.15
71126;BME280;58785;55.566;38.058;2023-12-07T10:37:18;102508.47;;;-5.91;63.96
71126;BME280;58785;55.566;38.058;2023-12-07T10:39:44;102517.16;;;-5.84;63.74
71126;BME280;58785;55.566;38.058;2023-12-07T10:42:10;102523.22;;;-5.82;63.92
71126;BME280;58785;55.566;38.058;2023-12-07T10:44:42;102521.47;;;-5.88;63.92
71126;BME280;58785;55.566;38.058;2023-12-07T10:47:11;102513.69;;;-5.85;64.40
71126;BME280;58785;55.566;38.058;2023-12-07T10:49:40;102511.09;;;-5.82;64.04
71126;BME280;58785;55.566;38.058;2023-12-07T10:52:12;102516.28;;;-5.85;64.16
71126;BME280;58785;55.566;38.058;2023-12-07T10:54:46;102516.28;;;-5.86;63.64
71126;BME280;58785;55.566;38.058;2023-12-07T10:57:16;102517.94;;;-5.96;64.03
71126;BME280;58785;55.566;38.058;2023-12-07T10:59:43;102525.78;;;-5.87;64.06
71126;BME280;58785;55.566;38.058;2023-12-07T11:02:10;102521.56;;;-5.79;64.04
71126;BME280;58785;55.566;38.058;2023-12-07T11:04:39;102521.59;;;-5.72;63.18
71126;BME280;58785;55.566;38.058;2023-12-07T11:07:11;102526.03;;;-5.62;63.37
71126;BME280;58785;55.566;38.058;2023-12-07T11:09:44;102528.69;;;-5.55;63.14
71126;BME280;58785;55.566;38.058;2023-12-07T11:12:33;102531.28;;;-5.55;63.01
71126;BME280;58785;55.566;38.058;2023-12-07T11:15:01;102527.69;;;-5.70;63.46
71126;BME280;58785;55.566;38.058;2023-12-07T11:17:49;102530.22;;;-5.76;63.61
71126;BME280;58785;55.566;38.058;2023-12-07T11:20:21;102531.88;;;-5.82;63.67
71126;BME280;58785;55.566;38.058;2023-12-07T11:22:47;102525.81;;;-5.84;63.97
71126;BME280;58785;55.566;38.058;2023-12-07T11:25:14;102536.16;;;-5.88;64.10
71126;BME280;58785;55.566;38.058;2023-12-07T11:27:44;102544.84;;;-5.86;63.86
71126;BME280;58785;55.566;38.058;2023-12-07T11:30:16;102550.06;;;-5.83;63.97
71126;BME280;58785;55.566;38.058;2023-12-07T11:32:41;102546.56;;;-5.88;64.03
71126;BME280;58785;55.566;38.058;2023-12-07T11:35:11;102538.69;;;-6.00;63.93
71126;BME280;58785;55.566;38.058;2023-12-07T11:38:00;102545.63;;;-5.99;64.34
71126;BME280;58785;55.566;38.058;2023-12-07T11:40:27;102542.06;;;-6.06;64.19
71126;BME280;58785;55.566;38.058;2023-12-07T11:42:52;102540.34;;;-6.05;64.67
71126;BME280;58785;55.566;38.058;2023-12-07T11:45:39;102534.19;;;-6.14;64.54
71126;BME280;58785;55.566;38.058;2023-12-07T11:48:09;102544.56;;;-6.14;64.43
71126;BME280;58785;55.566;38.058;2023-12-07T11:50:35;102535.88;;;-6.19;64.68
71126;BME280;58785;55.566;38.058;2023-12-07T11:53:01;102543.59;;;-6.22;64.57
71126;BME280;58785;55.566;38.058;2023-12-07T11:55:27;102549.66;;;-6.21;65.22
71126;BME280;58785;55.566;38.058;2023-12-07T11:57:54;102546.25;;;-6.17;64.72
71126;BME280;58785;55.566;38.058;2023-12-07T12:00:20;102539.38;;;-6.12;64.81
71126;BME280;58785;55.566;38.058;2023-12-07T12:02:47;102548.91;;;-6.13;65.03
71126;BME280;58785;55.566;38.058;2023-12-07T12:05:13;102529.78;;;-6.21;64.61
71126;BME280;58785;55.566;38.058;2023-12-07T12:07:39;102538.25;;;-6.35;65.02
71126;BME280;58785;55.566;38.058;2023-12-07T12:10:05;102533.06;;;-6.35;65.10
71126;BME280;58785;55.566;38.058;2023-12-07T12:12:33;102538.16;;;-6.43;64.93
71126;BME280;58785;55.566;38.058;2023-12-07T12:14:59;102536.34;;;-6.49;65.15
71126;BME280;58785;55.566;38.058;2023-12-07T12:17:24;102531.09;;;-6.53;64.97
71126;BME280;58785;55.566;38.058;2023-12-07T12:19:50;102539.69;;;-6.59;65.08
71126;BME280;58785;55.566;38.058;2023-12-07T12:22:20;102537.84;;;-6.68;65.14
71126;BME280;58785;55.566;38.058;2023-12-07T12:24:47;102541.13;;;-6.81;65.74
71126;BME280;58785;55.566;38.058;2023-12-07T12:27:13;102540.19;;;-6.83;65.37
71126;BME280;58785;55.566;38.058;2023-12-07T12:29:40;102535.78;;;-6.90;66.03
71126;BME280;58785;55.566;38.058;2023-12-07T12:32:05;102539.19;;;-6.92;65.87
71126;BME280;58785;55.566;38.058;2023-12-07T12:34:34;102532.22;;;-6.98;65.69
71126;BME280;58785;55.566;38.058;2023-12-07T12:37:00;102539.94;;;-7.01;65.62
71126;BME280;58785;55.566;38.058;2023-12-07T12:39:29;102545.06;;;-7.06;65.96
71126;BME280;58785;55.566;38.058;2023-12-07T12:41:56;102547.63;;;-7.06;65.66